Time;durP1;ratioP1;P1;durP2;ratioP2;P2;SDS_P1;SDS_P2;PMS_P1;PMS_P2;Temp;Humidity;BMP_temperature;BMP_pressure;BME280_temperature;BME280_humidity;BME280_pressure;Samples;Min_cycle;Max_cycle;Signal;HPM_P1;HPM_P2
2021/03/02 00:00:08;;;;;;;8.77;5.25;;;10.80;58.50;11.00;100642.00;;;;342768;28;86892;-84
2021/03/02 00:00:23;;;;;;;9.45;5.53;;;10.80;58.70;11.10;100650.00;;;;338812;28;88384;-84
2021/03/02 00:00:41;;;;;;;10.35;5.72;;;10.80;58.50;11.10;100645.00;;;;338698;28;88052;-84
2021/03/02 00:01:35;;;;;;;9.10;5.68;;;10.80;58.50;11.10;100641.00;;;;338779;28;92728;-84
2021/03/02 00:01:54;;;;;;;8.90;5.30;;;10.80;58.20;11.20;100643.00;;;;339753;28;89077;-85
2021/03/02 00:02:15;;;;;;;11.13;6.15;;;10.80;58.40;11.30;100637.00;;;;340114;28;92000;-84
2021/03/02 00:02:30;;;;;;;12.52;6.07;;;10.80;58.90;11.30;100635.00;;;;344240;28;86798;-83
2021/03/02 00:02:45;;;;;;;10.77;5.68;;;10.90;58.60;11.20;100644.00;;;;342963;28;89323;-84
2021/03/02 00:03:05;;;;;;;10.10;5.75;;;10.90;58.40;11.20;100647.00;;;;342655;28;88971;-84
2021/03/02 00:03:38;;;;;;;10.07;4.85;;;10.90;58.30;11.00;100641.00;;;;342769;28;88852;-84
2021/03/02 00:03:49;;;;;;;12.70;5.18;;;10.90;58.70;11.00;100648.00;;;;342811;28;86905;-84
2021/03/02 00:04:21;;;;;;;11.85;5.22;;;10.90;58.60;11.20;100646.00;;;;344308;28;88074;-84
2021/03/02 00:04:39;;;;;;;11.95;5.57;;;10.90;59.00;11.20;100638.00;;;;341365;28;88598;-84
2021/03/02 00:04:52;;;;;;;10.90;5.72;;;10.90;58.30;11.10;100641.00;;;;341438;28;91897;-84
2021/03/02 00:05:13;;;;;;;8.75;6.13;;;10.90;58.30;11.20;100644.00;;;;339758;28;86322;-85
2021/03/02 00:05:34;;;;;;;9.93;5.93;;;10.90;58.30;11.10;100641.00;;;;342740;28;91500;-84
2021/03/02 00:05:56;;;;;;;9.85;5.40;;;10.90;58.30;11.10;100644.00;;;;341344;28;89131;-84
2021/03/02 00:06:17;;;;;;;11.00;5.95;;;10.80;58.30;11.10;100646.00;;;;341430;28;91771;-84
2021/03/02 00:06:33;;;;;;;10.10;5.72;;;10.80;58.30;11.10;100642.00;;;;338741;28;87545;-84
2021/03/02 00:06:51;;;;;;;10.68;5.80;;;10.80;58.30;10.90;100644.00;;;;344333;28;88867;-84
2021/03/02 00:07:05;;;;;;;11.52;5.97;;;10.80;58.50;11.10;100641.00;;;;344018;28;88899;-84
2021/03/02 00:07:23;;;;;;;12.18;5.30;;;10.80;58.40;11.10;100644.00;;;;342936;28;90677;-83
2021/03/02 00:07:42;;;;;;;11.82;5.75;;;10.80;58.50;11.10;100639.00;;;;342708;28;86911;-84
2021/03/02 00:07:55;;;;;;;10.25;6.25;;;10.80;58.50;11.10;100641.00;;;;342944;28;90495;-84
2021/03/02 00:08:21;;;;;;;10.95;6.18;;;10.80;58.60;10.90;100637.00;;;;342741;28;86815;-85
2021/03/02 00:08:38;;;;;;;10.32;5.95;;;10.80;58.80;10.70;100644.00;;;;341552;28;91020;-84
2021/03/02 00:09:03;;;;;;;8.80;5.40;;;10.80;58.90;10.90;100641.00;;;;342655;28;86347;-84
2021/03/02 00:09:28;;;;;;;10.77;6.13;;;10.80;58.60;10.90;100648.00;;;;342823;28;92323;-84
2021/03/02 00:09:44;;;;;;;9.27;5.30;;;10.70;58.50;10.90;100637.00;;;;342294;28;86316;-84
2021/03/02 00:10:12;;;;;;;12.02;6.32;;;10.80;58.60;10.90;100641.00;;;;344233;28;91808;-84
2021/03/02 00:10:25;;;;;;;10.40;6.25;;;10.70;58.70;10.90;100640.00;;;;341486;28;87036;-84
2021/03/02 00:10:52;;;;;;;11.88;6.70;;;10.70;58.80;10.90;100646.00;;;;341595;28;89772;-84
2021/03/02 00:11:06;;;;;;;12.57;6.75;;;10.70;58.60;10.90;100634.00;;;;339953;28;88384;-84
2021/03/02 00:11:18;;;;;;;14.10;6.50;;;10.70;58.70;11.00;100639.00;;;;338883;28;92094;-84
2021/03/02 00:11:31;;;;;;;13.02;6.20;;;10.70;58.80;10.90;100643.00;;;;342690;28;89020;-84
2021/03/02 00:11:50;;;;;;;10.65;6.22;;;10.70;58.80;11.00;100641.00;;;;344249;28;91238;-86
2021/03/02 00:12:09;;;;;;;13.25;6.20;;;10.70;58.90;11.10;100641.00;;;;340029;28;89260;-84
2021/03/02 00:12:24;;;;;;;14.18;6.43;;;10.70;58.90;11.10;100640.00;;;;342836;28;90650;-84
2021/03/02 00:12:42;;;;;;;12.48;6.25;;;10.70;58.70;11.00;100647.00;;;;338235;28;86915;-84
2021/03/02 00:13:11;;;;;;;10.45;6.60;;;10.70;58.80;10.80;100645.00;;;;342961;28;89138;-84
2021/03/02 00:13:40;;;;;;;10.15;6.50;;;10.70;58.70;10.90;100635.00;;;;341342;28;86973;-87
2021/03/02 00:13:55;;;;;;;9.93;6.10;;;10.70;58.60;11.00;100638.00;;;;341460;28;91243;-84
2021/03/02 00:14:14;;;;;;;10.43;5.88;;;10.70;58.70;11.00;100639.00;;;;341024;28;87923;-84
2021/03/02 00:14:28;;;;;;;9.70;5.65;;;10.60;58.80;11.10;100633.00;;;;343664;28;88198;-84
2021/03/02 00:14:42;;;;;;;8.02;5.40;;;10.70;58.70;11.00;100644.00;;;;342716;28;87653;-84
2021/03/02 00:15:02;;;;;;;8.30;5.63;;;10.70;58.80;11.00;100636.00;;;;342651;28;90067;-85
2021/03/02 00:15:26;;;;;;;11.27;6.35;;;10.70;58.70;10.90;100639.00;;;;341321;28;88823;-84
2021/03/02 00:15:41;;;;;;;12.10;6.53;;;10.70;58.60;10.80;100636.00;;;;341494;28;87902;-84
2021/03/02 00:16:01;;;;;;;8.32;5.32;;;10.70;58.90;10.80;100638.00;;;;344059;28;88484;-85
2021/03/02 00:16:28;;;;;;;11.35;6.13;;;10.70;59.10;10.90;100643.00;;;;342942;28;89294;-84
2021/03/02 00:16:51;;;;;;;11.68;6.50;;;10.60;58.70;10.90;100630.00;;;;342658;28;88540;-84
2021/03/02 00:17:47;;;;;;;14.55;5.78;;;10.60;58.80;10.80;100636.00;;;;342860;28;87955;-84
2021/03/02 00:18:14;;;;;;;10.52;6.32;;;10.60;59.20;10.70;100631.00;;;;340429;28;87111;-84
2021/03/02 00:18:46;;;;;;;11.68;6.53;;;10.50;59.00;10.70;100636.00;;;;340071;28;86869;-84
2021/03/02 00:19:13;;;;;;;11.38;6.00;;;10.50;59.20;10.80;100636.00;;;;341337;28;87063;-84
2021/03/02 00:20:13;;;;;;;11.43;5.93;;;10.50;59.60;10.60;100642.00;;;;340225;28;88972;-84
2021/03/02 00:20:32;;;;;;;9.40;5.25;;;10.40;59.20;10.50;100647.00;;;;342091;28;87337;-84
2021/03/02 00:20:51;;;;;;;8.95;5.35;;;10.40;59.50;10.50;100637.00;;;;341168;28;87841;-83
2021/03/02 00:21:14;;;;;;;9.50;5.28;;;10.40;59.60;10.50;100638.00;;;;341379;28;88755;-84
2021/03/02 00:22:13;;;;;;;8.35;5.28;;;10.40;59.30;10.50;100646.00;;;;342148;28;90058;-84
2021/03/02 00:23:23;;;;;;;10.07;5.72;;;10.30;59.30;10.30;100650.00;;;;342518;28;87040;-84
2021/03/02 00:24:09;;;;;;;11.05;5.88;;;10.30;59.70;10.40;100658.00;;;;341011;28;88189;-84
2021/03/02 00:24:43;;;;;;;11.25;5.65;;;10.30;59.50;10.40;100658.00;;;;344183;28;85952;-84
2021/03/02 00:25:07;;;;;;;10.75;5.78;;;10.30;59.50;10.30;100652.00;;;;342830;28;92025;-84
2021/03/02 00:25:32;;;;;;;9.15;5.35;;;10.30;59.80;10.30;100655.00;;;;339986;28;87879;-84
2021/03/02 00:26:01;;;;;;;10.35;5.78;;;10.30;59.80;10.30;100653.00;;;;341037;28;88148;-84
2021/03/02 00:26:20;;;;;;;10.32;6.25;;;10.20;59.90;10.20;100653.00;;;;340235;28;87137;-87
2021/03/02 00:26:33;;;;;;;11.20;6.18;;;10.20;60.20;10.30;100654.00;;;;345481;28;91561;-84
2021/03/02 00:27:13;;;;;;;10.10;5.13;;;10.20;59.90;10.30;100649.00;;;;342940;28;86439;-85
2021/03/02 00:27:26;;;;;;;9.80;5.18;;;10.20;59.90;10.30;100653.00;;;;338993;28;87047;-84
2021/03/02 00:27:43;;;;;;;7.15;4.93;;;10.20;60.10;10.30;100643.00;;;;338372;28;86980;-84
2021/03/02 00:28:10;;;;;;;9.82;5.47;;;10.20;60.30;10.40;100651.00;;;;341328;28;88220;-84
2021/03/02 00:28:51;;;;;;;9.70;5.35;;;10.10;59.90;10.50;100656.00;;;;340897;28;86932;-84
2021/03/02 00:29:09;;;;;;;10.73;5.80;;;10.10;59.70;10.40;100646.00;;;;342873;28;90041;-88
2021/03/02 00:29:45;;;;;;;10.68;5.38;;;10.20;59.90;10.40;100651.00;;;;338629;28;86958;-84
2021/03/02 00:29:58;;;;;;;11.80;5.30;;;10.10;59.90;10.50;100647.00;;;;341477;28;89643;-84
2021/03/02 00:30:14;;;;;;;11.73;5.65;;;10.10;59.60;10.50;100653.00;;;;342220;28;87193;-85
2021/03/02 00:30:28;;;;;;;10.68;5.45;;;10.20;59.60;10.50;100645.00;;;;341324;28;91922;-85
2021/03/02 00:30:40;;;;;;;9.30;4.95;;;10.20;59.50;10.60;100649.00;;;;341292;28;88140;-85
2021/03/02 00:30:55;;;;;;;8.82;5.63;;;10.20;59.60;10.60;100656.00;;;;341291;28;87963;-84
2021/03/02 00:31:23;;;;;;;10.35;5.55;;;10.20;59.60;10.40;100653.00;;;;342672;28;89373;-85
2021/03/02 00:31:37;;;;;;;10.18;5.70;;;10.20;59.60;10.50;100654.00;;;;342695;28;92670;-84
2021/03/02 00:32:00;;;;;;;11.82;5.72;;;10.20;59.50;10.50;100648.00;;;;341249;28;89175;-84
2021/03/02 00:32:27;;;;;;;10.93;5.50;;;10.20;59.50;10.50;100638.00;;;;341436;28;87930;-84
2021/03/02 00:33:03;;;;;;;9.13;5.20;;;10.20;59.40;10.60;100657.00;;;;337261;28;87088;-85
2021/03/02 00:33:17;;;;;;;9.45;4.85;;;10.20;59.60;10.60;100653.00;;;;340239;28;88556;-84
2021/03/02 00:33:37;;;;;;;10.02;5.10;;;10.20;59.40;10.60;100651.00;;;;338808;28;86858;-84
2021/03/02 00:33:54;;;;;;;11.20;5.47;;;10.20;59.50;10.50;100648.00;;;;338855;28;90748;-84
2021/03/02 00:34:27;;;;;;;11.25;5.15;;;10.20;59.90;10.40;100652.00;;;;341400;28;86398;-84
2021/03/02 00:34:47;;;;;;;7.63;4.82;;;10.20;59.70;10.50;100653.00;;;;342796;28;87983;-84
2021/03/02 00:35:16;;;;;;;8.30;5.43;;;10.20;59.40;10.50;100655.00;;;;339731;28;86945;-84
2021/03/02 00:35:31;;;;;;;10.43;5.78;;;10.30;59.40;10.50;100655.00;;;;339966;28;87515;-85
2021/03/02 00:36:07;;;;;;;12.18;6.28;;;10.30;59.30;10.60;100655.00;;;;342729;28;86987;-84
2021/03/02 00:36:31;;;;;;;11.93;5.38;;;10.30;59.50;10.70;100646.00;;;;344183;28;88427;-84
2021/03/02 00:36:48;;;;;;;9.70;5.22;;;10.30;59.60;10.70;100656.00;;;;346402;28;86985;-84
2021/03/02 00:37:08;;;;;;;9.43;5.22;;;10.30;59.60;10.70;100653.00;;;;344187;28;89343;-84
2021/03/02 00:37:25;;;;;;;11.25;5.55;;;10.40;59.50;10.70;100653.00;;;;342764;28;88613;-84
2021/03/02 00:37:39;;;;;;;9.40;5.28;;;10.40;59.40;10.60;100646.00;;;;342736;28;88543;-85
2021/03/02 00:38:15;;;;;;;8.40;4.75;;;10.40;59.50;10.60;100655.00;;;;342991;28;85306;-84
2021/03/02 00:38:39;;;;;;;11.32;5.98;;;10.40;59.50;10.60;100654.00;;;;344332;28;88370;-84
2021/03/02 00:39:02;;;;;;;9.95;5.32;;;10.40;59.50;10.60;100655.00;;;;346633;28;87907;-84
2021/03/02 00:39:17;;;;;;;10.32;5.60;;;10.40;59.50;10.60;100657.00;;;;345414;28;91485;-84
2021/03/02 00:39:52;;;;;;;9.82;5.16;;;10.40;59.60;10.60;100652.00;;;;343536;28;86995;-84
2021/03/02 00:40:11;;;;;;;12.35;5.85;;;10.40;59.60;10.60;100651.00;;;;344148;28;91587;-84
2021/03/02 00:40:44;;;;;;;10.48;6.20;;;10.40;59.70;10.80;100651.00;;;;342762;28;86909;-84
2021/03/02 00:41:12;;;;;;;9.70;5.44;;;10.40;59.50;10.80;100648.00;;;;344372;28;88198;-84
2021/03/02 00:41:39;;;;;;;8.95;5.55;;;10.40;59.70;10.80;100655.00;;;;344298;28;86981;-84
2021/03/02 00:41:51;;;;;;;10.02;5.40;;;10.40;59.60;10.80;100649.00;;;;344118;28;90336;-84
2021/03/02 00:42:08;;;;;;;10.55;5.32;;;10.40;59.70;10.80;100650.00;;;;345528;28;86206;-85
2021/03/02 00:42:26;;;;;;;14.63;5.65;;;10.50;60.30;10.80;100648.00;;;;345745;28;87252;-84
2021/03/02 00:42:40;;;;;;;10.57;5.70;;;10.50;59.70;10.80;100653.00;;;;346808;28;88382;-84
2021/03/02 00:42:57;;;;;;;9.80;5.82;;;10.50;59.50;10.80;100652.00;;;;344584;28;87953;-84
2021/03/02 00:43:12;;;;;;;10.02;5.38;;;10.50;59.50;10.70;100656.00;;;;345310;28;87903;-84
2021/03/02 00:43:26;;;;;;;10.65;5.53;;;10.50;59.60;10.60;100641.00;;;;345521;28;89138;-83
2021/03/02 00:43:44;;;;;;;11.68;5.57;;;10.40;59.50;10.60;100655.00;;;;342734;28;87671;-84
2021/03/02 00:44:03;;;;;;;10.15;5.78;;;10.50;59.70;10.60;100654.00;;;;344224;28;88774;-84
2021/03/02 00:44:21;;;;;;;10.85;5.40;;;10.40;59.50;10.60;100652.00;;;;345165;28;87967;-85
2021/03/02 00:44:44;;;;;;;10.55;5.57;;;10.40;59.40;10.70;100657.00;;;;345557;28;89498;-84
2021/03/02 00:44:57;;;;;;;10.02;5.85;;;10.40;59.40;10.60;100654.00;;;;343939;28;87710;-84
2021/03/02 00:45:22;;;;;;;10.43;5.50;;;10.40;59.40;10.80;100648.00;;;;346450;28;87315;-84
2021/03/02 00:45:36;;;;;;;12.02;5.50;;;10.50;59.70;10.70;100651.00;;;;343563;28;87880;-84
2021/03/02 00:45:51;;;;;;;11.75;5.68;;;10.50;59.60;10.60;100650.00;;;;342817;28;89272;-84
2021/03/02 00:46:08;;;;;;;11.07;6.45;;;10.50;59.60;10.60;100652.00;;;;341329;28;89354;-85
2021/03/02 00:46:23;;;;;;;11.30;6.55;;;10.50;59.40;10.60;100658.00;;;;342882;28;89306;-85
2021/03/02 00:46:37;;;;;;;10.93;5.80;;;10.50;59.40;10.60;100655.00;;;;345611;28;86944;-84
2021/03/02 00:47:00;;;;;;;11.02;5.43;;;10.40;59.40;10.60;100660.00;;;;342785;28;90727;-87
2021/03/02 00:47:19;;;;;;;10.27;5.70;;;10.40;59.40;10.70;100653.00;;;;342888;28;88017;-89
2021/03/02 00:47:33;;;;;;;9.73;5.22;;;10.50;59.60;10.60;100655.00;;;;341651;28;87925;-84
2021/03/02 00:47:53;;;;;;;9.55;5.55;;;10.50;59.60;10.60;100655.00;;;;342974;28;89025;-87
2021/03/02 00:48:10;;;;;;;9.30;5.30;;;10.40;59.70;10.60;100653.00;;;;344098;28;88945;-85
2021/03/02 00:48:22;;;;;;;10.70;5.60;;;10.40;59.80;10.50;100655.00;;;;342834;28;87207;-85
2021/03/02 00:48:36;;;;;;;10.52;5.85;;;10.40;59.80;10.50;100653.00;;;;341571;28;90863;-84
2021/03/02 00:48:51;;;;;;;10.57;5.95;;;10.40;59.80;10.60;100657.00;;;;340024;28;87896;-86
2021/03/02 00:49:08;;;;;;;8.60;5.28;;;10.40;59.80;10.60;100650.00;;;;344310;28;89681;-85
2021/03/02 00:49:26;;;;;;;9.02;5.95;;;10.40;60.30;10.60;100661.00;;;;343900;28;87217;-84
2021/03/02 00:49:42;;;;;;;9.43;6.13;;;10.40;59.70;10.60;100650.00;;;;345508;28;91767;-84
2021/03/02 00:49:59;;;;;;;10.27;6.10;;;10.40;59.70;10.70;100655.00;;;;345400;28;88954;-84
2021/03/02 00:50:17;;;;;;;11.63;6.65;;;10.40;59.70;10.60;100654.00;;;;341493;28;90484;-84
2021/03/02 00:50:30;;;;;;;11.35;6.30;;;10.40;59.70;10.70;100651.00;;;;343966;28;87026;-84
2021/03/02 00:50:43;;;;;;;11.85;6.05;;;10.40;59.70;10.60;100651.00;;;;344403;28;88481;-84
2021/03/02 00:51:00;;;;;;;10.77;5.57;;;10.40;59.70;10.50;100646.00;;;;344065;28;87034;-83
2021/03/02 00:51:27;;;;;;;10.35;5.50;;;10.40;59.80;10.60;100650.00;;;;339876;28;90060;-84
2021/03/02 00:51:41;;;;;;;10.57;5.65;;;10.40;59.70;10.70;100657.00;;;;343622;28;88435;-83
2021/03/02 00:52:04;;;;;;;10.02;5.70;;;10.40;59.90;10.80;100655.00;;;;344065;28;87936;-84
2021/03/02 00:52:19;;;;;;;10.73;5.50;;;10.40;60.00;10.70;100658.00;;;;345356;28;88653;-85
2021/03/02 00:52:31;;;;;;;11.63;5.85;;;10.50;60.60;10.60;100655.00;;;;344259;28;91441;-84
2021/03/02 00:52:47;;;;;;;10.80;5.95;;;10.40;59.80;10.80;100664.00;;;;341285;28;88941;-84
2021/03/02 00:53:12;;;;;;;8.50;5.80;;;10.40;59.80;10.80;100656.00;;;;344242;28;88640;-84
2021/03/02 00:53:42;;;;;;;10.50;6.38;;;10.50;59.90;10.60;100651.00;;;;344973;28;87050;-84
2021/03/02 00:53:56;;;;;;;11.98;6.55;;;10.40;60.20;10.60;100656.00;;;;344510;28;87553;-84
2021/03/02 00:54:10;;;;;;;10.02;5.57;;;10.50;60.10;10.60;100655.00;;;;342377;28;87070;-85
2021/03/02 00:54:25;;;;;;;7.90;5.07;;;10.40;59.90;10.70;100658.00;;;;341982;28;87876;-85
2021/03/02 00:54:39;;;;;;;8.70;5.40;;;10.40;60.00;10.70;100654.00;;;;344052;28;86140;-86
2021/03/02 00:54:58;;;;;;;11.68;5.90;;;10.40;60.70;10.70;100650.00;;;;343988;28;88297;-84
2021/03/02 00:55:10;;;;;;;12.68;5.93;;;10.40;59.80;10.70;100656.00;;;;344127;28;87455;-84
2021/03/02 00:55:26;;;;;;;12.07;6.00;;;10.40;59.80;10.50;100654.00;;;;342779;28;88299;-83
2021/03/02 00:55:41;;;;;;;12.18;6.32;;;10.40;60.20;10.40;100660.00;;;;345520;28;86983;-84
2021/03/02 00:56:33;;;;;;;9.85;5.72;;;10.40;60.40;10.30;100654.00;;;;345415;28;88493;-84
2021/03/02 00:57:07;;;;;;;12.10;5.95;;;10.30;60.60;10.20;100654.00;;;;342695;28;86386;-84
2021/03/02 00:57:40;;;;;;;11.18;6.28;;;10.20;61.30;10.40;100665.00;;;;342052;28;87209;-84
2021/03/02 00:58:28;;;;;;;10.77;6.65;;;10.10;60.90;10.30;100654.00;;;;344055;28;86839;-84
2021/03/02 00:59:02;;;;;;;11.35;5.80;;;10.10;61.30;10.40;100664.00;;;;341888;28;88587;-83
2021/03/02 00:59:23;;;;;;;9.48;5.90;;;10.10;61.00;10.50;100658.00;;;;342450;28;88293;-84
2021/03/02 01:00:28;;;;;;;9.30;5.47;;;10.10;60.70;10.30;100656.00;;;;340258;28;87986;-83
2021/03/02 01:01:06;;;;;;;11.68;5.53;;;10.10;61.20;10.10;100664.00;;;;340020;28;86922;-84
2021/03/02 01:01:43;;;;;;;11.27;6.03;;;10.00;61.60;10.00;100662.00;;;;345181;28;88386;-85
2021/03/02 01:02:00;;;;;;;11.05;6.32;;;10.00;61.50;9.90;100663.00;;;;343910;28;88744;-84
2021/03/02 01:02:19;;;;;;;9.05;5.88;;;10.00;61.50;9.80;100665.00;;;;343665;28;88376;-85
2021/03/02 01:02:54;;;;;;;11.50;6.38;;;10.00;62.50;9.80;100662.00;;;;345394;28;86102;-84
2021/03/02 01:03:11;;;;;;;12.60;5.63;;;10.00;61.80;9.90;100662.00;;;;344198;28;90331;-84
2021/03/02 01:03:39;;;;;;;9.15;5.35;;;10.00;61.90;10.20;100664.00;;;;341190;28;86830;-84
2021/03/02 01:03:56;;;;;;;7.57;4.85;;;10.00;61.60;10.30;100659.00;;;;340057;28;87918;-84
2021/03/02 01:04:27;;;;;;;8.77;5.32;;;10.00;61.40;10.40;100665.00;;;;340025;28;86750;-84
2021/03/02 01:04:50;;;;;;;9.60;4.97;;;10.00;61.50;10.30;100659.00;;;;340184;28;91155;-84
2021/03/02 01:05:10;;;;;;;12.25;5.57;;;10.00;61.20;10.20;100662.00;;;;342800;28;87471;-84
2021/03/02 01:05:25;;;;;;;11.55;5.68;;;10.00;61.40;10.00;100657.00;;;;342160;28;91237;-84
2021/03/02 01:05:43;;;;;;;9.23;5.13;;;10.00;61.70;10.20;100662.00;;;;341266;28;87421;-84
2021/03/02 01:06:07;;;;;;;10.27;5.75;;;10.00;61.60;10.30;100655.00;;;;344219;28;88191;-84
2021/03/02 01:06:30;;;;;;;11.52;5.55;;;10.00;61.30;10.40;100662.00;;;;343964;28;88068;-84
2021/03/02 01:07:02;;;;;;;11.15;6.05;;;10.00;61.20;10.30;100658.00;;;;344194;28;90944;-83
2021/03/02 01:07:20;;;;;;;11.05;5.43;;;10.00;61.10;10.30;100665.00;;;;341128;28;88164;-84
2021/03/02 01:07:34;;;;;;;10.25;5.50;;;10.00;61.20;10.20;100667.00;;;;340562;28;91481;-85
2021/03/02 01:07:51;;;;;;;10.95;5.25;;;10.00;61.40;10.20;100663.00;;;;345434;28;86790;-85
2021/03/02 01:08:19;;;;;;;11.55;5.30;;;10.00;61.20;10.30;100672.00;;;;345532;28;88623;-84
2021/03/02 01:08:38;;;;;;;8.20;5.25;;;10.00;61.00;10.20;100668.00;;;;342684;28;87704;-84
2021/03/02 01:08:57;;;;;;;10.25;5.47;;;10.00;61.10;10.20;100664.00;;;;345130;28;88132;-85
2021/03/02 01:09:14;;;;;;;12.90;5.40;;;10.00;61.20;10.20;100662.00;;;;345424;28;88026;-84
2021/03/02 01:09:39;;;;;;;8.13;5.10;;;10.00;61.20;10.30;100661.00;;;;346890;28;89790;-84
2021/03/02 01:09:56;;;;;;;7.97;5.28;;;10.00;61.00;10.30;100663.00;;;;344004;28;88162;-85
2021/03/02 01:10:30;;;;;;;9.73;5.93;;;10.00;61.10;10.40;100669.00;;;;342722;28;89472;-84
2021/03/02 01:11:05;;;;;;;9.88;5.80;;;10.10;61.30;10.10;100660.00;;;;344083;28;86035;-84
2021/03/02 01:11:25;;;;;;;8.48;5.40;;;10.10;61.40;10.10;100666.00;;;;342821;28;89375;-84
2021/03/02 01:11:41;;;;;;;8.07;5.50;;;10.00;61.90;10.10;100660.00;;;;344911;28;86988;-87
2021/03/02 01:11:59;;;;;;;11.27;5.57;;;10.00;61.50;10.10;100655.00;;;;346939;28;90846;-84
2021/03/02 01:12:28;;;;;;;9.93;5.20;;;10.00;61.40;10.10;100655.00;;;;342635;28;89358;-84
2021/03/02 01:12:50;;;;;;;9.05;5.05;;;10.00;61.20;10.10;100660.00;;;;342879;28;88468;-84
2021/03/02 01:13:08;;;;;;;10.52;5.07;;;10.00;61.40;10.10;100666.00;;;;346072;28;88809;-84
2021/03/02 01:13:29;;;;;;;9.70;4.97;;;10.00;61.70;10.00;100657.00;;;;344057;28;87892;-84
2021/03/02 01:13:44;;;;;;;10.26;4.74;;;10.00;61.50;10.00;100662.00;;;;342411;28;86670;-84
2021/03/02 01:14:02;;;;;;;8.50;4.47;;;10.00;61.50;10.20;100661.00;;;;344059;28;90688;-86
2021/03/02 01:14:24;;;;;;;9.52;5.00;;;10.00;61.60;10.40;100658.00;;;;343916;28;88380;-84
2021/03/02 01:14:37;;;;;;;9.18;4.70;;;10.00;61.70;10.40;100664.00;;;;345501;28;94316;-84
2021/03/02 01:15:02;;;;;;;9.45;5.07;;;10.00;61.50;10.30;100658.00;;;;341467;28;86888;-84
2021/03/02 01:15:25;;;;;;;9.55;4.68;;;10.00;61.20;10.30;100658.00;;;;344111;28;91736;-84
2021/03/02 01:15:39;;;;;;;7.68;4.68;;;10.10;61.20;10.40;100661.00;;;;343931;28;88177;-84
2021/03/02 01:15:57;;;;;;;7.75;4.63;;;10.10;61.40;10.30;100661.00;;;;345335;28;88048;-84
2021/03/02 01:16:19;;;;;;;12.82;5.07;;;10.10;61.60;10.30;100662.00;;;;343862;28;87527;-83
2021/03/02 01:16:42;;;;;;;11.20;5.05;;;10.10;61.30;10.20;100664.00;;;;344680;28;88299;-84
2021/03/02 01:17:09;;;;;;;11.43;5.55;;;10.10;61.60;10.10;100657.00;;;;344702;28;87543;-85
2021/03/02 01:17:24;;;;;;;9.94;5.74;;;10.00;61.90;10.10;100653.00;;;;344100;28;89240;-85
2021/03/02 01:17:40;;;;;;;9.76;5.40;;;10.00;61.60;10.20;100657.00;;;;343923;28;88251;-84
2021/03/02 01:18:13;;;;;;;10.13;5.03;;;10.00;61.30;10.10;100656.00;;;;345442;28;90149;-84
2021/03/02 01:18:30;;;;;;;10.68;5.50;;;10.00;61.70;10.20;100657.00;;;;343954;28;86987;-84
2021/03/02 01:18:44;;;;;;;9.80;4.95;;;10.00;61.50;10.10;100659.00;;;;345335;28;91120;-84
2021/03/02 01:19:02;;;;;;;8.30;4.60;;;10.00;61.90;10.20;100657.00;;;;345450;28;86842;-84
2021/03/02 01:19:31;;;;;;;9.27;4.65;;;10.00;61.80;10.40;100659.00;;;;346519;28;87772;-84
2021/03/02 01:19:48;;;;;;;9.10;4.68;;;10.00;61.80;10.40;100653.00;;;;345240;28;88646;-84
2021/03/02 01:20:04;;;;;;;8.55;4.68;;;10.00;61.80;10.30;100660.00;;;;344232;28;89295;-83
2021/03/02 01:20:19;;;;;;;10.05;5.45;;;10.00;61.60;10.00;100650.00;;;;343612;28;88353;-84
2021/03/02 01:20:40;;;;;;;9.00;5.40;;;10.00;61.80;10.20;100657.00;;;;345584;28;89793;-84
2021/03/02 01:21:08;;;;;;;9.70;5.47;;;10.00;61.50;10.20;100655.00;;;;344317;28;86187;-84
2021/03/02 01:21:23;;;;;;;10.50;5.63;;;10.00;61.60;10.10;100655.00;;;;345531;28;92294;-84
2021/03/02 01:21:46;;;;;;;11.07;5.53;;;10.00;61.70;10.20;100663.00;;;;344113;28;86859;-84
2021/03/02 01:22:11;;;;;;;9.80;5.00;;;10.00;61.60;10.20;100664.00;;;;342917;28;87641;-84
2021/03/02 01:22:27;;;;;;;10.32;5.30;;;10.00;61.70;10.30;100658.00;;;;342612;28;89050;-84
2021/03/02 01:22:45;;;;;;;9.02;5.05;;;10.00;61.40;9.90;100658.00;;;;341114;28;88558;-85
2021/03/02 01:23:04;;;;;;;9.50;4.70;;;10.00;61.80;10.10;100651.00;;;;339734;28;87017;-84
2021/03/02 01:23:33;;;;;;;9.88;4.95;;;10.00;61.90;10.10;100653.00;;;;342703;28;87990;-85
2021/03/02 01:24:12;;;;;;;9.95;4.97;;;10.00;61.70;10.00;100659.00;;;;342784;28;86354;-84
2021/03/02 01:24:30;;;;;;;7.62;4.46;;;9.90;62.00;10.10;100644.00;;;;341230;28;87654;-85
2021/03/02 01:24:42;;;;;;;8.85;4.65;;;9.90;61.70;10.10;100647.00;;;;341960;28;86868;-84
2021/03/02 01:25:16;;;;;;;9.02;5.35;;;9.90;61.70;10.20;100654.00;;;;341596;28;87919;-84
2021/03/02 01:25:34;;;;;;;7.57;5.18;;;9.90;61.60;10.20;100654.00;;;;344049;28;87706;-84
2021/03/02 01:25:49;;;;;;;8.52;5.18;;;9.90;61.80;10.10;100645.00;;;;340152;28;88923;-84
2021/03/02 01:26:15;;;;;;;10.45;5.40;;;9.90;61.90;10.30;100658.00;;;;342438;28;88937;-84
2021/03/02 01:26:28;;;;;;;9.35;5.20;;;9.90;61.80;10.30;100654.00;;;;342854;28;90015;-84
2021/03/02 01:26:43;;;;;;;14.43;5.75;;;10.00;62.00;10.30;100654.00;;;;342671;28;87649;-84
2021/03/02 01:26:57;;;;;;;14.40;5.78;;;10.00;61.80;10.20;100659.00;;;;342612;28;90996;-84
2021/03/02 01:27:18;;;;;;;8.32;4.90;;;10.00;61.80;10.00;100649.00;;;;342539;28;86479;-84
2021/03/02 01:27:38;;;;;;;7.07;4.97;;;10.00;62.30;9.90;100658.00;;;;344194;28;88883;-86
2021/03/02 01:28:06;;;;;;;10.20;5.57;;;9.90;62.20;10.10;100665.00;;;;341088;28;86203;-84
2021/03/02 01:28:34;;;;;;;11.82;5.40;;;9.90;61.90;10.10;100661.00;;;;342721;28;90291;-84
2021/03/02 01:28:49;;;;;;;9.10;5.05;;;9.90;61.80;10.10;100660.00;;;;343364;28;89165;-85
2021/03/02 01:29:03;;;;;;;7.78;4.90;;;9.90;62.10;10.10;100661.00;;;;343875;28;91088;-86
2021/03/02 01:29:16;;;;;;;8.15;5.03;;;9.80;62.00;10.10;100655.00;;;;343692;28;87693;-84
2021/03/02 01:29:32;;;;;;;12.07;4.82;;;9.80;61.70;10.10;100653.00;;;;344013;28;89754;-84
2021/03/02 01:29:46;;;;;;;11.80;4.95;;;9.80;61.90;10.10;100660.00;;;;343906;28;88195;-84
2021/03/02 01:30:10;;;;;;;10.10;5.00;;;9.80;61.90;10.10;100659.00;;;;344271;28;89432;-84
2021/03/02 01:30:26;;;;;;;13.13;5.47;;;9.80;61.80;9.90;100659.00;;;;339851;28;89422;-84
2021/03/02 01:30:39;;;;;;;9.35;5.13;;;9.80;62.50;10.00;100656.00;;;;342778;28;91857;-84
2021/03/02 01:30:54;;;;;;;8.18;5.10;;;9.80;62.20;10.00;100655.00;;;;343906;28;86943;-85
2021/03/02 01:31:07;;;;;;;8.73;4.68;;;9.80;62.00;10.10;100657.00;;;;342755;28;90807;-84
2021/03/02 01:31:24;;;;;;;10.80;4.93;;;9.80;62.00;10.10;100662.00;;;;340012;28;86801;-85
2021/03/02 01:31:39;;;;;;;10.75;4.90;;;9.80;62.00;10.00;100666.00;;;;339933;28;92468;-84
2021/03/02 01:31:51;;;;;;;9.80;4.60;;;9.80;62.20;10.00;100664.00;;;;342244;28;88917;-84
2021/03/02 01:32:06;;;;;;;9.13;4.78;;;9.80;62.10;9.90;100664.00;;;;342491;28;90042;-84
2021/03/02 01:32:20;;;;;;;8.88;5.05;;;9.80;62.80;9.80;100665.00;;;;342349;28;88663;-84
2021/03/02 01:32:34;;;;;;;8.88;5.16;;;9.80;63.30;9.80;100663.00;;;;342708;28;92571;-84
2021/03/02 01:32:51;;;;;;;9.32;5.43;;;9.70;62.80;9.80;100662.00;;;;341232;28;88775;-84
2021/03/02 01:33:09;;;;;;;8.82;5.25;;;9.70;62.60;9.70;100665.00;;;;341467;28;90359;-84
2021/03/02 01:33:21;;;;;;;7.75;4.85;;;9.70;62.60;9.50;100662.00;;;;342574;28;87574;-84
2021/03/02 01:33:36;;;;;;;9.63;5.03;;;9.70;62.80;9.50;100663.00;;;;346561;28;88573;-84
2021/03/02 01:33:51;;;;;;;12.45;5.60;;;9.70;62.90;9.70;100663.00;;;;345370;28;87083;-84
2021/03/02 01:34:06;;;;;;;11.73;5.68;;;9.70;63.00;9.60;100667.00;;;;344170;28;92175;-84
2021/03/02 01:34:19;;;;;;;11.15;5.57;;;9.70;62.90;9.60;100660.00;;;;342568;28;87742;-83
2021/03/02 01:34:32;;;;;;;10.65;5.75;;;9.70;63.10;9.50;100667.00;;;;344018;28;90673;-84